Buoy 22628

sailwx.info

Track history (hours):
 
Tides and Currents Weather Stations Pressure Air Temp Water Temp Dewpoint Dewpoint Depression Visibility Wind Speed Wind Dir Waves Ship Positions

Drifting buoy 22628

Last reported at 2018-Aug-09 16:00 UTC. Time now 2018-Aug-20 16:48 UTC.
Position N 25°22' W 146°06'.
Warning: this ship's position is 11 days out of date.

Barometer 1015.2 mb
Water temperature 23.9 ° C

Date/timePositionNaut miles runAvg speedWind from/ knotsBaromVisibWave heightAir tempDewpointWater temp
2018-Aug-09 16:00N 25°22' W 146°06'2 1.6 1015.2 23.9
2018-Aug-09 15:00N 25°22' W 146°04'0 0.0 1014.8 23.9
2018-Aug-09 14:00N 25°22' W 146°04'2 2.0 1014.7 23.9
2018-Aug-09 13:00N 25°21' W 146°02'1 0.1 1014.7 24.0
2018-Aug-09 07:00N 25°20' W 146°03'2 1.6 1015.9 24.1
2018-Aug-09 06:00N 25°20' W 146°01'1 1.2 1015.7 24.1
2018-Aug-09 05:00N 25°20' W 146°00'1 0.8 1015.1 24.1
2018-Aug-09 04:00N 25°20' W 145°59'1 1.1 1014.7 24.2
2018-Aug-09 03:00N 25°20' W 145°58'0 0.0 1014.4 24.4
2018-Aug-09 02:00N 25°20' W 145°58'3 2.8 1014.5 24.5
2018-Aug-09 01:00N 25°21' W 145°55'0 0.0 1014.7 24.6
2018-Aug-09 00:00N 25°21' W 145°55'1 0.2 1014.8 24.5
2018-Aug-08 20:00N 25°20' W 145°55'1 0.8 1015.9 23.9
2018-Aug-08 19:00N 25°21' W 145°54'1 1.1 1015.8 23.8
2018-Aug-08 18:00N 25°21' W 145°53'0 0.0 1015.6 23.8
2018-Aug-08 17:00N 25°21' W 145°53'0 0.0 1015.6 23.7
2018-Aug-08 16:00N 25°21' W 145°53'1 1.1 1015.5 23.7
2018-Aug-08 15:00N 25°21' W 145°52'2 2.2 1015.0 23.7
2018-Aug-08 14:00N 25°21' W 145°49'2 2.2 1014.7 23.7
2018-Aug-08 13:00N 25°21' W 145°52'2 1.1 1014.6 23.7
2018-Aug-08 11:00N 25°21' W 145°49'1 0.3 1015.0 23.7
2018-Aug-08 07:00N 25°21' W 145°48'1 0.8 1016.7 23.8
2018-Aug-08 06:00N 25°22' W 145°47'1 0.8 1016.4 23.9
2018-Aug-08 05:00N 25°22' W 145°47'1 0.5 1015.9 23.9
2018-Aug-08 04:00N 25°22' W 145°46'1 0.5 1015.4 24.0
2018-Aug-08 03:00N 25°22' W 145°46'1 0.8 1015.0 24.0
2018-Aug-08 02:00N 25°22' W 145°45'1 0.5 1015.1 24.0
2018-Aug-08 00:00N 25°22' W 145°44'0 0.0 1015.9 24.0
2018-Aug-07 23:00N 25°22' W 145°44'2 0.7 1016.4 24.0
2018-Aug-07 20:00N 25°22' W 145°41'1 0.8 1017.2 23.8
2018-Aug-07 19:00N 25°22' W 145°41'1 0.5 1017.4 23.8
2018-Aug-07 18:00N 25°22' W 145°40'0 0.0 1017.4 23.6
2018-Aug-07 17:00N 25°22' W 145°40'1 1.1 1017.1 23.6
2018-Aug-07 16:00N 25°22' W 145°39'1 0.5 1016.6 23.6
2018-Aug-07 15:00N 25°22' W 145°38'0 0.0 1016.2 23.6
2018-Aug-07 14:00N 25°22' W 145°38'1 1.1 1015.9 23.6
2018-Aug-07 13:00N 25°22' W 145°37'0 0.0 1016.1 23.6
2018-Aug-07 12:00N 25°22' W 145°37'3 0.9 1016.1 23.6
2018-Aug-07 08:00N 25°23' W 145°34'1 1.2 1017.7 23.7
2018-Aug-07 07:00N 25°23' W 145°32'1 0.6 1017.8 23.7
2018-Aug-07 06:00N 25°23' W 145°32'1 0.5 1017.5 23.7
2018-Aug-07 05:00N 25°23' W 145°32'2 1.7 1017.1 23.7
2018-Aug-07 04:00N 25°24' W 145°30'1 1.2 1016.5 23.7
2018-Aug-07 03:00N 25°25' W 145°29'0 0.0 1016.2 23.8
2018-Aug-07 02:00N 25°25' W 145°29'2 1.6 1016.1 23.8
2018-Aug-07 01:00N 25°26' W 145°28'0 0.0 1016.3 23.8
2018-Aug-07 00:00N 25°26' W 145°28'0 0.0 1016.5 23.8
2018-Aug-06 23:00N 25°26' W 145°28'3 1.0 1017.2 23.7
2018-Aug-06 20:00N 25°28' W 145°26'1 0.8 1018.1 23.6
2018-Aug-06 19:00N 25°29' W 145°25'1 0.5 1017.9 23.6
2018-Aug-06 18:00N 25°29' W 145°25'0 0.0 1017.6 23.6
2018-Aug-06 17:00N 25°29' W 145°25'1 1.1 1017.2 23.6
2018-Aug-06 16:00N 25°29' W 145°23'0 0.0 1016.8 23.6
2018-Aug-06 15:00N 25°29' W 145°23'1 0.5 1016.3 23.6
2018-Aug-06 14:00N 25°29' W 145°23'1 1.2 1016.1 23.6
2018-Aug-06 13:00N 25°29' W 145°22'0 0.0 1015.9 23.6
2018-Aug-06 12:00N 25°29' W 145°22'6 1.1 1015.8 23.6
2018-Aug-06 07:00N 25°31' W 145°16'2 1.7 1017.4 23.6
2018-Aug-06 06:00N 25°31' W 145°14'1 1.2 1017.2 23.7
2018-Aug-06 05:00N 25°32' W 145°13'1 0.8 1016.8 23.7
2018-Aug-06 04:00N 25°32' W 145°12'3 3.0 1016.2 23.7
2018-Aug-06 03:00N 25°34' W 145°09'0 0.0 1016.0 23.7
2018-Aug-06 02:00N 25°34' W 145°09'2 2.4 1016.1 23.8
2018-Aug-06 01:00N 25°35' W 145°07'0 0.0 1016.3 23.8
2018-Aug-06 00:00N 25°35' W 145°07'0 0.0 1016.7 23.8
2018-Aug-05 23:00N 25°35' W 145°07'4 1.4 1017.1 23.7
2018-Aug-05 20:00N 25°39' W 145°05'1 0.5 1018.4 23.7
2018-Aug-05 19:00N 25°39' W 145°04'1 0.8 1018.6 23.7
2018-Aug-05 18:00N 25°40' W 145°04'1 0.5 1018.5 23.7
2018-Aug-05 17:00N 25°40' W 145°03'2 1.6 1018.3 23.7
2018-Aug-05 16:00N 25°40' W 145°01'2 0.9 1018.1 23.7
2018-Aug-05 14:00N 25°40' W 144°59'1 0.8 1017.2 23.7
2018-Aug-05 13:00N 25°41' W 144°59'0 0.0 1017.4 23.7
2018-Aug-05 12:00N 25°41' W 144°59'6 1.3 1017.5 23.7
2018-Aug-05 07:00N 25°43' W 144°52'2 2.5 1019.3 23.7
2018-Aug-05 06:00N 25°44' W 144°50'1 0.6 1019.0 23.7
2018-Aug-05 05:00N 25°45' W 144°50'1 0.8 1018.6 23.8
2018-Aug-05 04:00N 25°46' W 144°49'2 1.6 1018.1 23.8
2018-Aug-05 03:00N 25°47' W 144°48'1 0.6 1017.9 23.8
2018-Aug-05 02:00N 25°47' W 144°48'2 1.7 1018.0 23.9
2018-Aug-05 01:00N 25°48' W 144°46'1 0.6 1018.1 23.9
2018-Aug-05 00:00N 25°49' W 144°46'6 1.4 1018.5 23.8
2018-Aug-04 20:00N 25°52' W 144°41'0 0.0 1020.8 23.7
2018-Aug-04 19:00N 25°52' W 144°41'1 1.2 1020.8 23.7
2018-Aug-04 18:00N 25°53' W 144°41'1 0.8 1020.8 23.7
2018-Aug-04 17:00N 25°53' W 144°40'1 0.8 1020.6 23.7
2018-Aug-04 16:00N 25°54' W 144°40'1 1.1 1020.3 23.7
2018-Aug-04 15:00N 25°54' W 144°38'2 1.6 1019.9 23.6
2018-Aug-04 14:00N 25°55' W 144°37'0 0.0 1020.1 23.6
2018-Aug-04 13:00N 25°55' W 144°37'6 6.5 1019.9 23.6
2018-Aug-04 12:00N 25°59' W 144°31'1 0.3 1020.1 23.6
2018-Aug-04 07:00N 26°00' W 144°31'1 0.8 1020.9 23.6
2018-Aug-04 06:00N 26°01' W 144°30'2 1.6 1020.6 23.6
2018-Aug-04 05:00N 26°02' W 144°29'1 1.3 1020.4 23.7
2018-Aug-04 04:00N 26°03' W 144°28'1 0.8 1019.9 23.7
2018-Aug-04 03:00N 26°04' W 144°28'1 0.6 1019.7 23.7
2018-Aug-04 02:00N 26°04' W 144°28'2 1.6 1019.6 23.8
2018-Aug-04 01:00N 26°05' W 144°26'5 5.1 1019.8 23.7
2018-Aug-04 00:00N 26°10' W 144°25'1 0.2 1020.2 23.8
2018-Aug-03 20:00N 26°11' W 144°24'1 0.6 1021.3 23.6
2018-Aug-03 19:00N 26°11' W 144°24'1 0.6 1021.3 23.6
2018-Aug-03 18:00N 26°12' W 144°24'1 0.5 1021.3 23.6
2018-Aug-03 17:00N 26°12' W 144°23'1 1.2 1021.2 23.6
2018-Aug-03 16:00N 26°13' W 144°23'1 0.5 1020.8 23.5
2018-Aug-03 15:00N 26°13' W 144°23'2 1.6 1020.7 23.5
2018-Aug-03 14:00N 26°14' W 144°22'4 4.4 1019.9 23.5
2018-Aug-03 13:00N 26°17' W 144°18'0 0.0 1019.9 23.5
2018-Aug-03 12:00N 26°17' W 144°18'1 0.3 1019.9 23.5
2018-Aug-03 07:00N 26°19' W 144°17'2 2.1 1021.6 23.5
2018-Aug-03 06:00N 26°20' W 144°16'0 0.0 1021.2 23.5
2018-Aug-03 05:00N 26°20' W 144°16'1 1.2 1021.0 23.5
2018-Aug-03 04:00N 26°21' W 144°15'1 1.2 1020.5 23.5
2018-Aug-03 03:00N 26°22' W 144°15'2 1.9 1020.4 23.5
2018-Aug-03 02:00N 26°24' W 144°14'2 2.4 1020.3 23.5
2018-Aug-03 01:00N 26°26' W 144°14'0 0.0 1020.5 23.4
2018-Aug-03 00:00N 26°26' W 144°14'1 0.3 1020.9 23.4
2018-Aug-02 20:00N 26°26' W 144°13'0 0.0 1022.3 23.2
2018-Aug-02 19:00N 26°26' W 144°13'1 0.5 1022.1 23.2
2018-Aug-02 18:00N 26°26' W 144°13'1 0.5 1022.0 23.2
2018-Aug-02 17:00N 26°26' W 144°12'1 0.8 1022.0 23.2
2018-Aug-02 16:00N 26°27' W 144°11'1 0.6 1021.6 23.2
2018-Aug-02 15:00N 26°28' W 144°11'1 1.1 1021.3 23.3
2018-Aug-02 14:00N 26°28' W 144°10'0 0.0 1021.2 23.3
2018-Aug-02 13:00N 26°28' W 144°10'3 3.4 1021.1 23.3
2018-Aug-02 12:00N 26°29' W 144°07'0 0.0 1021.2 23.4
2018-Aug-02 07:00N 26°29' W 144°07'1 0.8 1022.3 23.5
2018-Aug-02 06:00N 26°29' W 144°06'1 0.8 1021.6 23.5
2018-Aug-02 05:00N 26°30' W 144°05'1 0.5 1021.1 23.5
2018-Aug-02 04:00N 26°30' W 144°05'1 0.6 1020.6 23.5
2018-Aug-02 03:00N 26°31' W 144°05'0 0.0 1020.4 23.6
2018-Aug-02 02:00N 26°31' W 144°05'1 0.6 1020.9 23.6
2018-Aug-02 01:00N 26°31' W 144°05'0 0.0 1021.1 23.6
2018-Aug-02 00:00N 26°31' W 144°05'1 0.3 1021.6 23.6
2018-Aug-01 20:00N 26°31' W 144°04'1 1.2 1023.4 23.6
2018-Aug-01 19:00N 26°30' W 144°02'1 0.5 1022.6 23.6
2018-Aug-01 18:00N 26°30' W 144°02'1 0.8 1022.8 23.6
2018-Aug-01 17:00N 26°29' W 144°01'0 0.0 1022.5 23.6
2018-Aug-01 16:00N 26°29' W 144°01'2 2.1 1022.7 23.6
2018-Aug-01 15:00N 26°29' W 143°59'0 0.0 1022.7 23.6
2018-Aug-01 14:00N 26°29' W 143°59'4 4.5 1021.9 23.6
2018-Aug-01 13:00N 26°31' W 143°54'1 0.1 1021.8 23.6
2018-Aug-01 07:00N 26°31' W 143°53'1 0.6 1023.2 23.6
2018-Aug-01 06:00N 26°32' W 143°53'1 0.8 1022.9 23.6
2018-Aug-01 05:00N 26°32' W 143°53'1 0.8 1022.7 23.6
2018-Aug-01 04:00N 26°33' W 143°52'0 0.0 1022.2 23.6
2018-Aug-01 03:00N 26°33' W 143°52'1 0.6 1022.2 23.6
2018-Aug-01 02:00N 26°34' W 143°52'0 0.0 1022.6 23.6
2018-Aug-01 01:00N 26°34' W 143°52'2 0.4 1023.0 23.6
2018-Jul-31 19:00N 26°34' W 143°50'1 1.1 1024.0 23.6
2018-Jul-31 18:00N 26°34' W 143°49'1 1.2 1024.0 23.6
2018-Jul-31 17:00N 26°33' W 143°47'0 0.0 1023.7 23.6
2018-Jul-31 16:00N 26°33' W 143°47'2 2.2 1023.4 23.6
2018-Jul-31 15:00N 26°34' W 143°45'1 0.5 1023.1 23.6
2018-Jul-31 14:00N 26°34' W 143°44'1 1.2 1022.9 23.6
2018-Jul-31 13:00N 26°34' W 143°43'0 0.0 1023.1 23.7
2018-Jul-31 12:00N 26°34' W 143°43'4 3.6 1022.9 23.7
2018-Jul-31 11:00N 26°37' W 143°40'0 0.0 1023.0 23.7
2018-Jul-31 07:00N 26°37' W 143°40'1 1.3 1024.2 23.7
2018-Jul-31 06:00N 26°38' W 143°40'1 0.5 1023.6 23.7
2018-Jul-31 05:00N 26°38' W 143°39'1 0.6 1023.3 23.7
2018-Jul-31 04:00N 26°38' W 143°39'1 0.8 1023.0 23.7
2018-Jul-31 03:00N 26°39' W 143°38'1 0.5 1022.8 23.7
2018-Jul-31 02:00N 26°39' W 143°38'0 0.0 1022.6 23.7
2018-Jul-31 01:00N 26°39' W 143°38'1 0.6 1022.9 23.7
2018-Jul-31 00:00N 26°40' W 143°38'0 0.0 1023.3 23.7
2018-Jul-30 23:00N 26°40' W 143°38'2 0.7 1023.6 23.7
2018-Jul-30 20:00N 26°39' W 143°35'1 0.5 1024.3 23.7
2018-Jul-30 19:00N 26°39' W 143°35'1 0.6 1024.3 23.7
2018-Jul-30 18:00N 26°40' W 143°35'1 0.8 1024.3 23.6
2018-Jul-30 17:00N 26°39' W 143°34'   1024.2 23.7
Track history (hours):
 
Tides and Currents Weather Stations Pressure Air Temp Water Temp Dewpoint Dewpoint Depression Visibility Wind Speed Wind Dir Waves Ship Positions

Drifting buoy 22628

Last reported at 2018-Aug-09 16:00 UTC. Time now 2018-Aug-20 16:48 UTC.
Position N 25°22' W 146°06'.
Warning: this ship's position is 11 days out of date.

Barometer 1015.2 mb
Water temperature 23.9 ° C

Date/timePositionNaut miles runAvg speedWind from/ knotsBaromVisibWave heightAir tempDewpointWater temp
2018-Aug-09 16:00N 25°22' W 146°06'2 1.6 1015.2 23.9
2018-Aug-09 15:00N 25°22' W 146°04'0 0.0 1014.8 23.9
2018-Aug-09 14:00N 25°22' W 146°04'2 2.0 1014.7 23.9
2018-Aug-09 13:00N 25°21' W 146°02'1 0.1 1014.7 24.0
2018-Aug-09 07:00N 25°20' W 146°03'2 1.6 1015.9 24.1
2018-Aug-09 06:00N 25°20' W 146°01'1 1.2 1015.7 24.1
2018-Aug-09 05:00N 25°20' W 146°00'1 0.8 1015.1 24.1
2018-Aug-09 04:00N 25°20' W 145°59'1 1.1 1014.7 24.2
2018-Aug-09 03:00N 25°20' W 145°58'0 0.0 1014.4 24.4
2018-Aug-09 02:00N 25°20' W 145°58'3 2.8 1014.5 24.5
2018-Aug-09 01:00N 25°21' W 145°55'0 0.0 1014.7 24.6
2018-Aug-09 00:00N 25°21' W 145°55'1 0.2 1014.8 24.5
2018-Aug-08 20:00N 25°20' W 145°55'1 0.8 1015.9 23.9
2018-Aug-08 19:00N 25°21' W 145°54'1 1.1 1015.8 23.8
2018-Aug-08 18:00N 25°21' W 145°53'0 0.0 1015.6 23.8
2018-Aug-08 17:00N 25°21' W 145°53'0 0.0 1015.6 23.7
2018-Aug-08 16:00N 25°21' W 145°53'1 1.1 1015.5 23.7
2018-Aug-08 15:00N 25°21' W 145°52'2 2.2 1015.0 23.7
2018-Aug-08 14:00N 25°21' W 145°49'2 2.2 1014.7 23.7
2018-Aug-08 13:00N 25°21' W 145°52'2 1.1 1014.6 23.7
2018-Aug-08 11:00N 25°21' W 145°49'1 0.3 1015.0 23.7
2018-Aug-08 07:00N 25°21' W 145°48'1 0.8 1016.7 23.8
2018-Aug-08 06:00N 25°22' W 145°47'1 0.8 1016.4 23.9
2018-Aug-08 05:00N 25°22' W 145°47'1 0.5 1015.9 23.9
2018-Aug-08 04:00N 25°22' W 145°46'1 0.5 1015.4 24.0
2018-Aug-08 03:00N 25°22' W 145°46'1 0.8 1015.0 24.0
2018-Aug-08 02:00N 25°22' W 145°45'1 0.5 1015.1 24.0
2018-Aug-08 00:00N 25°22' W 145°44'0 0.0 1015.9 24.0
2018-Aug-07 23:00N 25°22' W 145°44'2 0.7 1016.4 24.0
2018-Aug-07 20:00N 25°22' W 145°41'1 0.8 1017.2 23.8
2018-Aug-07 19:00N 25°22' W 145°41'1 0.5 1017.4 23.8
2018-Aug-07 18:00N 25°22' W 145°40'0 0.0 1017.4 23.6
2018-Aug-07 17:00N 25°22' W 145°40'1 1.1 1017.1 23.6
2018-Aug-07 16:00N 25°22' W 145°39'1 0.5 1016.6 23.6
2018-Aug-07 15:00N 25°22' W 145°38'0 0.0 1016.2 23.6
2018-Aug-07 14:00N 25°22' W 145°38'1 1.1 1015.9 23.6
2018-Aug-07 13:00N 25°22' W 145°37'0 0.0 1016.1 23.6
2018-Aug-07 12:00N 25°22' W 145°37'3 0.9 1016.1 23.6
2018-Aug-07 08:00N 25°23' W 145°34'1 1.2 1017.7 23.7
2018-Aug-07 07:00N 25°23' W 145°32'1 0.6 1017.8 23.7
2018-Aug-07 06:00N 25°23' W 145°32'1 0.5 1017.5 23.7
2018-Aug-07 05:00N 25°23' W 145°32'2 1.7 1017.1 23.7
2018-Aug-07 04:00N 25°24' W 145°30'1 1.2 1016.5 23.7
2018-Aug-07 03:00N 25°25' W 145°29'0 0.0 1016.2 23.8
2018-Aug-07 02:00N 25°25' W 145°29'2 1.6 1016.1 23.8
2018-Aug-07 01:00N 25°26' W 145°28'0 0.0 1016.3 23.8
2018-Aug-07 00:00N 25°26' W 145°28'0 0.0 1016.5 23.8
2018-Aug-06 23:00N 25°26' W 145°28'3 1.0 1017.2 23.7
2018-Aug-06 20:00N 25°28' W 145°26'1 0.8 1018.1 23.6
2018-Aug-06 19:00N 25°29' W 145°25'1 0.5 1017.9 23.6
2018-Aug-06 18:00N 25°29' W 145°25'0 0.0 1017.6 23.6
2018-Aug-06 17:00N 25°29' W 145°25'1 1.1 1017.2 23.6
2018-Aug-06 16:00N 25°29' W 145°23'0 0.0 1016.8 23.6
2018-Aug-06 15:00N 25°29' W 145°23'1 0.5 1016.3 23.6
2018-Aug-06 14:00N 25°29' W 145°23'1 1.2 1016.1 23.6
2018-Aug-06 13:00N 25°29' W 145°22'0 0.0 1015.9 23.6
2018-Aug-06 12:00N 25°29' W 145°22'6 1.1 1015.8 23.6
2018-Aug-06 07:00N 25°31' W 145°16'2 1.7 1017.4 23.6
2018-Aug-06 06:00N 25°31' W 145°14'1 1.2 1017.2 23.7
2018-Aug-06 05:00N 25°32' W 145°13'1 0.8 1016.8 23.7
2018-Aug-06 04:00N 25°32' W 145°12'3 3.0 1016.2 23.7
2018-Aug-06 03:00N 25°34' W 145°09'0 0.0 1016.0 23.7
2018-Aug-06 02:00N 25°34' W 145°09'2 2.4 1016.1 23.8
2018-Aug-06 01:00N 25°35' W 145°07'0 0.0 1016.3 23.8
2018-Aug-06 00:00N 25°35' W 145°07'0 0.0 1016.7 23.8
2018-Aug-05 23:00N 25°35' W 145°07'4 1.4 1017.1 23.7
2018-Aug-05 20:00N 25°39' W 145°05'1 0.5 1018.4 23.7
2018-Aug-05 19:00N 25°39' W 145°04'1 0.8 1018.6 23.7
2018-Aug-05 18:00N 25°40' W 145°04'1 0.5 1018.5 23.7
2018-Aug-05 17:00N 25°40' W 145°03'2 1.6 1018.3 23.7
2018-Aug-05 16:00N 25°40' W 145°01'2 0.9 1018.1 23.7
2018-Aug-05 14:00N 25°40' W 144°59'1 0.8 1017.2 23.7
2018-Aug-05 13:00N 25°41' W 144°59'0 0.0 1017.4 23.7
2018-Aug-05 12:00N 25°41' W 144°59'6 1.3 1017.5 23.7
2018-Aug-05 07:00N 25°43' W 144°52'2 2.5 1019.3 23.7
2018-Aug-05 06:00N 25°44' W 144°50'1 0.6 1019.0 23.7
2018-Aug-05 05:00N 25°45' W 144°50'1 0.8 1018.6 23.8
2018-Aug-05 04:00N 25°46' W 144°49'2 1.6 1018.1 23.8
2018-Aug-05 03:00N 25°47' W 144°48'1 0.6 1017.9 23.8
2018-Aug-05 02:00N 25°47' W 144°48'2 1.7 1018.0 23.9
2018-Aug-05 01:00N 25°48' W 144°46'1 0.6 1018.1 23.9
2018-Aug-05 00:00N 25°49' W 144°46'6 1.4 1018.5 23.8
2018-Aug-04 20:00N 25°52' W 144°41'0 0.0 1020.8 23.7
2018-Aug-04 19:00N 25°52' W 144°41'1 1.2 1020.8 23.7
2018-Aug-04 18:00N 25°53' W 144°41'1 0.8 1020.8 23.7
2018-Aug-04 17:00N 25°53' W 144°40'1 0.8 1020.6 23.7
2018-Aug-04 16:00N 25°54' W 144°40'1 1.1 1020.3 23.7
2018-Aug-04 15:00N 25°54' W 144°38'2 1.6 1019.9 23.6
2018-Aug-04 14:00N 25°55' W 144°37'0 0.0 1020.1 23.6
2018-Aug-04 13:00N 25°55' W 144°37'6 6.5 1019.9 23.6
2018-Aug-04 12:00N 25°59' W 144°31'1 0.3 1020.1 23.6
2018-Aug-04 07:00N 26°00' W 144°31'1 0.8 1020.9 23.6
2018-Aug-04 06:00N 26°01' W 144°30'2 1.6 1020.6 23.6
2018-Aug-04 05:00N 26°02' W 144°29'1 1.3 1020.4 23.7
2018-Aug-04 04:00N 26°03' W 144°28'1 0.8 1019.9 23.7
2018-Aug-04 03:00N 26°04' W 144°28'1 0.6 1019.7 23.7
2018-Aug-04 02:00N 26°04' W 144°28'2 1.6 1019.6 23.8
2018-Aug-04 01:00N 26°05' W 144°26'5 5.1 1019.8 23.7
2018-Aug-04 00:00N 26°10' W 144°25'1 0.2 1020.2 23.8
2018-Aug-03 20:00N 26°11' W 144°24'1 0.6 1021.3 23.6
2018-Aug-03 19:00N 26°11' W 144°24'1 0.6 1021.3 23.6
2018-Aug-03 18:00N 26°12' W 144°24'1 0.5 1021.3 23.6
2018-Aug-03 17:00N 26°12' W 144°23'1 1.2 1021.2 23.6
2018-Aug-03 16:00N 26°13' W 144°23'1 0.5 1020.8 23.5
2018-Aug-03 15:00N 26°13' W 144°23'2 1.6 1020.7 23.5
2018-Aug-03 14:00N 26°14' W 144°22'4 4.4 1019.9 23.5
2018-Aug-03 13:00N 26°17' W 144°18'0 0.0 1019.9 23.5
2018-Aug-03 12:00N 26°17' W 144°18'1 0.3 1019.9 23.5
2018-Aug-03 07:00N 26°19' W 144°17'2 2.1 1021.6 23.5
2018-Aug-03 06:00N 26°20' W 144°16'0 0.0 1021.2 23.5
2018-Aug-03 05:00N 26°20' W 144°16'1 1.2 1021.0 23.5
2018-Aug-03 04:00N 26°21' W 144°15'1 1.2 1020.5 23.5
2018-Aug-03 03:00N 26°22' W 144°15'2 1.9 1020.4 23.5
2018-Aug-03 02:00N 26°24' W 144°14'2 2.4 1020.3 23.5
2018-Aug-03 01:00N 26°26' W 144°14'0 0.0 1020.5 23.4
2018-Aug-03 00:00N 26°26' W 144°14'1 0.3 1020.9 23.4
2018-Aug-02 20:00N 26°26' W 144°13'0 0.0 1022.3 23.2
2018-Aug-02 19:00N 26°26' W 144°13'1 0.5 1022.1 23.2
2018-Aug-02 18:00N 26°26' W 144°13'1 0.5 1022.0 23.2
2018-Aug-02 17:00N 26°26' W 144°12'1 0.8 1022.0 23.2
2018-Aug-02 16:00N 26°27' W 144°11'1 0.6 1021.6 23.2
2018-Aug-02 15:00N 26°28' W 144°11'1 1.1 1021.3 23.3
2018-Aug-02 14:00N 26°28' W 144°10'0 0.0 1021.2 23.3
2018-Aug-02 13:00N 26°28' W 144°10'3 3.4 1021.1 23.3
2018-Aug-02 12:00N 26°29' W 144°07'0 0.0 1021.2 23.4
2018-Aug-02 07:00N 26°29' W 144°07'1 0.8 1022.3 23.5
2018-Aug-02 06:00N 26°29' W 144°06'1 0.8 1021.6 23.5
2018-Aug-02 05:00N 26°30' W 144°05'1 0.5 1021.1 23.5
2018-Aug-02 04:00N 26°30' W 144°05'1 0.6 1020.6 23.5
2018-Aug-02 03:00N 26°31' W 144°05'0 0.0 1020.4 23.6
2018-Aug-02 02:00N 26°31' W 144°05'1 0.6 1020.9 23.6
2018-Aug-02 01:00N 26°31' W 144°05'0 0.0 1021.1 23.6
2018-Aug-02 00:00N 26°31' W 144°05'1 0.3 1021.6 23.6
2018-Aug-01 20:00N 26°31' W 144°04'1 1.2 1023.4 23.6
2018-Aug-01 19:00N 26°30' W 144°02'1 0.5 1022.6 23.6
2018-Aug-01 18:00N 26°30' W 144°02'1 0.8 1022.8 23.6
2018-Aug-01 17:00N 26°29' W 144°01'0 0.0 1022.5 23.6
2018-Aug-01 16:00N 26°29' W 144°01'2 2.1 1022.7 23.6
2018-Aug-01 15:00N 26°29' W 143°59'0 0.0 1022.7 23.6
2018-Aug-01 14:00N 26°29' W 143°59'4 4.5 1021.9 23.6
2018-Aug-01 13:00N 26°31' W 143°54'1 0.1 1021.8 23.6
2018-Aug-01 07:00N 26°31' W 143°53'1 0.6 1023.2 23.6
2018-Aug-01 06:00N 26°32' W 143°53'1 0.8 1022.9 23.6
2018-Aug-01 05:00N 26°32' W 143°53'1 0.8 1022.7 23.6
2018-Aug-01 04:00N 26°33' W 143°52'0 0.0 1022.2 23.6
2018-Aug-01 03:00N 26°33' W 143°52'1 0.6 1022.2 23.6
2018-Aug-01 02:00N 26°34' W 143°52'0 0.0 1022.6 23.6
2018-Aug-01 01:00N 26°34' W 143°52'2 0.4 1023.0 23.6
2018-Jul-31 19:00N 26°34' W 143°50'1 1.1 1024.0 23.6
2018-Jul-31 18:00N 26°34' W 143°49'1 1.2 1024.0 23.6
2018-Jul-31 17:00N 26°33' W 143°47'0 0.0 1023.7 23.6
2018-Jul-31 16:00N 26°33' W 143°47'2 2.2 1023.4 23.6
2018-Jul-31 15:00N 26°34' W 143°45'1 0.5 1023.1 23.6
2018-Jul-31 14:00N 26°34' W 143°44'1 1.2 1022.9 23.6
2018-Jul-31 13:00N 26°34' W 143°43'0 0.0 1023.1 23.7
2018-Jul-31 12:00N 26°34' W 143°43'4 3.6 1022.9 23.7
2018-Jul-31 11:00N 26°37' W 143°40'0 0.0 1023.0 23.7
2018-Jul-31 07:00N 26°37' W 143°40'1 1.3 1024.2 23.7
2018-Jul-31 06:00N 26°38' W 143°40'1 0.5 1023.6 23.7
2018-Jul-31 05:00N 26°38' W 143°39'1 0.6 1023.3 23.7
2018-Jul-31 04:00N 26°38' W 143°39'1 0.8 1023.0 23.7
2018-Jul-31 03:00N 26°39' W 143°38'1 0.5 1022.8 23.7
2018-Jul-31 02:00N 26°39' W 143°38'0 0.0 1022.6 23.7
2018-Jul-31 01:00N 26°39' W 143°38'1 0.6 1022.9 23.7
2018-Jul-31 00:00N 26°40' W 143°38'0 0.0 1023.3 23.7
2018-Jul-30 23:00N 26°40' W 143°38'2 0.7 1023.6 23.7
2018-Jul-30 20:00N 26°39' W 143°35'1 0.5 1024.3 23.7
2018-Jul-30 19:00N 26°39' W 143°35'1 0.6 1024.3 23.7
2018-Jul-30 18:00N 26°40' W 143°35'1 0.8 1024.3 23.6
2018-Jul-30 17:00N 26°39' W 143°34'   1024.2 23.7

Dump ship's entire track history